sensor_id;sensor_type;location;lat;lon;timestamp;P1;durP1;ratioP1;P2;durP2;ratioP2
52380;SDS011;38310;52.796;6.942;2023-05-10T00:01:08;20.05;;;15.80;;
52380;SDS011;38310;52.796;6.942;2023-05-10T00:03:33;20.58;;;13.25;;
52380;SDS011;38310;52.796;6.942;2023-05-10T00:05:59;15.20;;;10.07;;
52380;SDS011;38310;52.796;6.942;2023-05-10T00:08:25;13.25;;;10.63;;
52380;SDS011;38310;52.796;6.942;2023-05-10T00:10:51;12.85;;;9.25;;
52380;SDS011;38310;52.796;6.942;2023-05-10T00:13:17;12.93;;;10.55;;
52380;SDS011;38310;52.796;6.942;2023-05-10T00:15:43;13.45;;;11.50;;
52380;SDS011;38310;52.796;6.942;2023-05-10T00:18:09;11.00;;;9.80;;
52380;SDS011;38310;52.796;6.942;2023-05-10T00:20:35;12.60;;;10.77;;
52380;SDS011;38310;52.796;6.942;2023-05-10T00:23:00;13.93;;;12.25;;
52380;SDS011;38310;52.796;6.942;2023-05-10T00:25:26;15.52;;;12.30;;
52380;SDS011;38310;52.796;6.942;2023-05-10T00:27:52;15.15;;;12.90;;
52380;SDS011;38310;52.796;6.942;2023-05-10T00:30:20;17.30;;;15.18;;
52380;SDS011;38310;52.796;6.942;2023-05-10T00:32:46;16.50;;;12.43;;
52380;SDS011;38310;52.796;6.942;2023-05-10T00:35:13;17.17;;;14.13;;
52380;SDS011;38310;52.796;6.942;2023-05-10T00:37:39;15.13;;;13.50;;
52380;SDS011;38310;52.796;6.942;2023-05-10T00:40:05;17.00;;;13.35;;
52380;SDS011;38310;52.796;6.942;2023-05-10T00:42:32;22.08;;;16.45;;
52380;SDS011;38310;52.796;6.942;2023-05-10T00:44:57;15.88;;;13.93;;
52380;SDS011;38310;52.796;6.942;2023-05-10T00:47:23;17.05;;;14.25;;
52380;SDS011;38310;52.796;6.942;2023-05-10T00:49:49;16.25;;;13.98;;
52380;SDS011;38310;52.796;6.942;2023-05-10T00:52:15;15.30;;;11.55;;
52380;SDS011;38310;52.796;6.942;2023-05-10T00:54:41;14.35;;;12.00;;
52380;SDS011;38310;52.796;6.942;2023-05-10T00:57:07;14.30;;;11.70;;
52380;SDS011;38310;52.796;6.942;2023-05-10T00:59:33;12.90;;;10.85;;
52380;SDS011;38310;52.796;6.942;2023-05-10T01:01:59;15.82;;;11.70;;
52380;SDS011;38310;52.796;6.942;2023-05-10T01:04:25;17.55;;;13.88;;
52380;SDS011;38310;52.796;6.942;2023-05-10T01:06:51;12.18;;;10.10;;
52380;SDS011;38310;52.796;6.942;2023-05-10T01:09:18;17.13;;;13.10;;
52380;SDS011;38310;52.796;6.942;2023-05-10T01:11:45;14.02;;;11.15;;
52380;SDS011;38310;52.796;6.942;2023-05-10T01:14:11;17.67;;;11.80;;
52380;SDS011;38310;52.796;6.942;2023-05-10T01:16:38;15.88;;;10.95;;
52380;SDS011;38310;52.796;6.942;2023-05-10T01:19:27;18.15;;;12.95;;
52380;SDS011;38310;52.796;6.942;2023-05-10T01:21:58;15.35;;;12.02;;
52380;SDS011;38310;52.796;6.942;2023-05-10T01:27:37;15.93;;;12.43;;
52380;SDS011;38310;52.796;6.942;2023-05-10T01:31:04;16.63;;;12.93;;
52380;SDS011;38310;52.796;6.942;2023-05-10T01:33:59;16.58;;;12.60;;
52380;SDS011;38310;52.796;6.942;2023-05-10T01:36:43;17.02;;;13.88;;
52380;SDS011;38310;52.796;6.942;2023-05-10T01:42:25;20.50;;;14.85;;
52380;SDS011;38310;52.796;6.942;2023-05-10T01:45:00;15.18;;;12.30;;
52380;SDS011;38310;52.796;6.942;2023-05-10T01:50:04;15.68;;;12.45;;
52380;SDS011;38310;52.796;6.942;2023-05-10T01:52:41;17.75;;;13.00;;
52380;SDS011;38310;52.796;6.942;2023-05-10T01:55:11;14.43;;;12.00;;
52380;SDS011;38310;52.796;6.942;2023-05-10T01:57:42;16.58;;;12.27;;
52380;SDS011;38310;52.796;6.942;2023-05-10T02:00:09;18.13;;;13.98;;
52380;SDS011;38310;52.796;6.942;2023-05-10T02:02:39;13.95;;;11.68;;
52380;SDS011;38310;52.796;6.942;2023-05-10T02:05:07;18.35;;;12.35;;
52380;SDS011;38310;52.796;6.942;2023-05-10T02:07:37;19.48;;;13.32;;
52380;SDS011;38310;52.796;6.942;2023-05-10T02:10:04;14.65;;;11.93;;
52380;SDS011;38310;52.796;6.942;2023-05-10T02:12:35;21.75;;;13.77;;
52380;SDS011;38310;52.796;6.942;2023-05-10T02:15:03;15.15;;;12.20;;
52380;SDS011;38310;52.796;6.942;2023-05-10T02:17:31;16.13;;;11.82;;
52380;SDS011;38310;52.796;6.942;2023-05-10T02:19:58;15.60;;;12.25;;
52380;SDS011;38310;52.796;6.942;2023-05-10T02:22:26;16.05;;;11.57;;
52380;SDS011;38310;52.796;6.942;2023-05-10T02:24:57;14.98;;;11.23;;
52380;SDS011;38310;52.796;6.942;2023-05-10T02:27:24;13.63;;;11.23;;
52380;SDS011;38310;52.796;6.942;2023-05-10T02:29:52;14.35;;;12.02;;
52380;SDS011;38310;52.796;6.942;2023-05-10T02:32:19;15.65;;;12.15;;
52380;SDS011;38310;52.796;6.942;2023-05-10T02:34:47;14.30;;;11.20;;
52380;SDS011;38310;52.796;6.942;2023-05-10T02:37:17;16.95;;;12.55;;
52380;SDS011;38310;52.796;6.942;2023-05-10T02:39:46;14.98;;;10.63;;
52380;SDS011;38310;52.796;6.942;2023-05-10T02:42:15;17.13;;;11.13;;
52380;SDS011;38310;52.796;6.942;2023-05-10T02:44:45;17.98;;;12.02;;
52380;SDS011;38310;52.796;6.942;2023-05-10T02:47:13;15.98;;;11.10;;
52380;SDS011;38310;52.796;6.942;2023-05-10T02:49:38;12.65;;;9.73;;
52380;SDS011;38310;52.796;6.942;2023-05-10T02:52:05;12.48;;;9.38;;
52380;SDS011;38310;52.796;6.942;2023-05-10T02:54:39;15.40;;;10.98;;
52380;SDS011;38310;52.796;6.942;2023-05-10T02:57:08;14.57;;;10.68;;
52380;SDS011;38310;52.796;6.942;2023-05-10T02:59:40;12.05;;;9.02;;
52380;SDS011;38310;52.796;6.942;2023-05-10T03:02:08;13.65;;;10.65;;
52380;SDS011;38310;52.796;6.942;2023-05-10T03:04:34;17.17;;;12.02;;
52380;SDS011;38310;52.796;6.942;2023-05-10T03:07:00;13.98;;;11.35;;
52380;SDS011;38310;52.796;6.942;2023-05-10T03:09:26;15.55;;;12.13;;
52380;SDS011;38310;52.796;6.942;2023-05-10T03:18:23;14.43;;;9.77;;
52380;SDS011;38310;52.796;6.942;2023-05-10T03:20:57;12.50;;;8.95;;
52380;SDS011;38310;52.796;6.942;2023-05-10T03:23:34;14.60;;;10.35;;
52380;SDS011;38310;52.796;6.942;2023-05-10T03:26:05;14.20;;;11.10;;
52380;SDS011;38310;52.796;6.942;2023-05-10T03:28:33;14.75;;;11.60;;
52380;SDS011;38310;52.796;6.942;2023-05-10T03:31:00;13.63;;;10.43;;
52380;SDS011;38310;52.796;6.942;2023-05-10T03:33:28;13.55;;;10.98;;
52380;SDS011;38310;52.796;6.942;2023-05-10T03:35:54;13.27;;;10.25;;
52380;SDS011;38310;52.796;6.942;2023-05-10T03:38:20;14.27;;;11.18;;
52380;SDS011;38310;52.796;6.942;2023-05-10T03:40:45;17.50;;;10.98;;
52380;SDS011;38310;52.796;6.942;2023-05-10T03:43:11;13.63;;;10.23;;
52380;SDS011;38310;52.796;6.942;2023-05-10T03:45:37;15.40;;;10.40;;
52380;SDS011;38310;52.796;6.942;2023-05-10T03:48:03;14.25;;;10.50;;
52380;SDS011;38310;52.796;6.942;2023-05-10T03:50:28;15.48;;;10.80;;
52380;SDS011;38310;52.796;6.942;2023-05-10T03:52:54;14.32;;;10.57;;
52380;SDS011;38310;52.796;6.942;2023-05-10T03:55:20;14.50;;;10.50;;
52380;SDS011;38310;52.796;6.942;2023-05-10T03:57:47;15.43;;;11.23;;
52380;SDS011;38310;52.796;6.942;2023-05-10T04:00:14;13.48;;;10.05;;
52380;SDS011;38310;52.796;6.942;2023-05-10T04:02:40;14.15;;;10.52;;
52380;SDS011;38310;52.796;6.942;2023-05-10T04:05:06;12.57;;;8.80;;
52380;SDS011;38310;52.796;6.942;2023-05-10T04:07:32;13.30;;;10.25;;
52380;SDS011;38310;52.796;6.942;2023-05-10T04:09:58;14.68;;;10.38;;
52380;SDS011;38310;52.796;6.942;2023-05-10T04:12:24;13.57;;;10.05;;
52380;SDS011;38310;52.796;6.942;2023-05-10T04:14:49;12.88;;;10.95;;
52380;SDS011;38310;52.796;6.942;2023-05-10T04:17:16;14.52;;;10.90;;
52380;SDS011;38310;52.796;6.942;2023-05-10T04:19:41;12.52;;;9.98;;
52380;SDS011;38310;52.796;6.942;2023-05-10T04:22:07;13.98;;;10.88;;
52380;SDS011;38310;52.796;6.942;2023-05-10T04:24:33;14.10;;;10.93;;
52380;SDS011;38310;52.796;6.942;2023-05-10T04:26:59;14.30;;;11.15;;
52380;SDS011;38310;52.796;6.942;2023-05-10T04:29:24;15.65;;;11.63;;
52380;SDS011;38310;52.796;6.942;2023-05-10T04:31:50;18.10;;;12.60;;
52380;SDS011;38310;52.796;6.942;2023-05-10T04:34:16;15.20;;;11.68;;
52380;SDS011;38310;52.796;6.942;2023-05-10T04:36:42;14.20;;;11.18;;
52380;SDS011;38310;52.796;6.942;2023-05-10T04:39:08;13.32;;;10.45;;
52380;SDS011;38310;52.796;6.942;2023-05-10T04:41:34;13.98;;;11.45;;
52380;SDS011;38310;52.796;6.942;2023-05-10T04:44:00;15.82;;;11.20;;
52380;SDS011;38310;52.796;6.942;2023-05-10T04:46:26;12.95;;;10.55;;
52380;SDS011;38310;52.796;6.942;2023-05-10T04:48:51;14.32;;;11.15;;
52380;SDS011;38310;52.796;6.942;2023-05-10T04:51:17;15.77;;;10.85;;
52380;SDS011;38310;52.796;6.942;2023-05-10T04:53:43;14.52;;;11.35;;
52380;SDS011;38310;52.796;6.942;2023-05-10T04:56:09;15.02;;;11.10;;
52380;SDS011;38310;52.796;6.942;2023-05-10T04:58:35;12.02;;;9.57;;
52380;SDS011;38310;52.796;6.942;2023-05-10T05:01:07;13.50;;;11.10;;
52380;SDS011;38310;52.796;6.942;2023-05-10T05:03:33;12.82;;;10.02;;
52380;SDS011;38310;52.796;6.942;2023-05-10T05:05:59;15.88;;;11.15;;
52380;SDS011;38310;52.796;6.942;2023-05-10T05:08:25;15.38;;;11.68;;
52380;SDS011;38310;52.796;6.942;2023-05-10T05:10:51;16.10;;;12.32;;
52380;SDS011;38310;52.796;6.942;2023-05-10T05:13:17;16.67;;;12.75;;
52380;SDS011;38310;52.796;6.942;2023-05-10T05:15:42;17.40;;;13.00;;
52380;SDS011;38310;52.796;6.942;2023-05-10T05:18:08;18.48;;;13.77;;
52380;SDS011;38310;52.796;6.942;2023-05-10T05:20:34;19.02;;;12.25;;
52380;SDS011;38310;52.796;6.942;2023-05-10T05:23:00;17.52;;;12.07;;
52380;SDS011;38310;52.796;6.942;2023-05-10T05:25:26;19.10;;;12.85;;
52380;SDS011;38310;52.796;6.942;2023-05-10T05:27:51;18.02;;;13.07;;
52380;SDS011;38310;52.796;6.942;2023-05-10T05:30:17;21.50;;;15.25;;
52380;SDS011;38310;52.796;6.942;2023-05-10T05:32:43;19.65;;;14.27;;
52380;SDS011;38310;52.796;6.942;2023-05-10T05:35:08;17.83;;;12.35;;
52380;SDS011;38310;52.796;6.942;2023-05-10T05:37:34;21.55;;;14.70;;
52380;SDS011;38310;52.796;6.942;2023-05-10T05:40:00;17.10;;;12.90;;
52380;SDS011;38310;52.796;6.942;2023-05-10T05:42:26;17.05;;;12.73;;
52380;SDS011;38310;52.796;6.942;2023-05-10T05:44:52;17.33;;;12.95;;
52380;SDS011;38310;52.796;6.942;2023-05-10T05:47:18;17.23;;;12.30;;
52380;SDS011;38310;52.796;6.942;2023-05-10T05:49:43;19.40;;;12.30;;
52380;SDS011;38310;52.796;6.942;2023-05-10T05:52:10;18.65;;;12.93;;
52380;SDS011;38310;52.796;6.942;2023-05-10T05:54:36;16.75;;;12.57;;
52380;SDS011;38310;52.796;6.942;2023-05-10T05:57:02;16.88;;;12.45;;
52380;SDS011;38310;52.796;6.942;2023-05-10T05:59:28;18.50;;;12.50;;
52380;SDS011;38310;52.796;6.942;2023-05-10T06:01:54;18.58;;;13.27;;
52380;SDS011;38310;52.796;6.942;2023-05-10T06:04:19;18.02;;;12.55;;
52380;SDS011;38310;52.796;6.942;2023-05-10T06:06:45;17.15;;;11.45;;
52380;SDS011;38310;52.796;6.942;2023-05-10T06:09:11;18.42;;;12.68;;
52380;SDS011;38310;52.796;6.942;2023-05-10T06:11:37;20.10;;;11.55;;
52380;SDS011;38310;52.796;6.942;2023-05-10T06:14:03;16.65;;;11.57;;
52380;SDS011;38310;52.796;6.942;2023-05-10T06:16:31;14.77;;;10.98;;
52380;SDS011;38310;52.796;6.942;2023-05-10T06:18:57;17.85;;;12.13;;
52380;SDS011;38310;52.796;6.942;2023-05-10T06:21:23;18.63;;;12.85;;
52380;SDS011;38310;52.796;6.942;2023-05-10T06:23:49;18.83;;;11.85;;
52380;SDS011;38310;52.796;6.942;2023-05-10T06:26:14;17.40;;;12.18;;
52380;SDS011;38310;52.796;6.942;2023-05-10T06:28:40;17.13;;;11.30;;
52380;SDS011;38310;52.796;6.942;2023-05-10T06:31:06;13.65;;;9.85;;
52380;SDS011;38310;52.796;6.942;2023-05-10T06:33:32;16.30;;;11.07;;
52380;SDS011;38310;52.796;6.942;2023-05-10T06:35:58;14.63;;;9.90;;
52380;SDS011;38310;52.796;6.942;2023-05-10T06:38:24;15.38;;;10.48;;
52380;SDS011;38310;52.796;6.942;2023-05-10T06:40:50;11.68;;;9.48;;
52380;SDS011;38310;52.796;6.942;2023-05-10T06:43:16;15.57;;;9.60;;
52380;SDS011;38310;52.796;6.942;2023-05-10T06:45:42;15.07;;;10.50;;
52380;SDS011;38310;52.796;6.942;2023-05-10T06:48:07;13.52;;;9.52;;
52380;SDS011;38310;52.796;6.942;2023-05-10T06:50:33;16.40;;;10.90;;
52380;SDS011;38310;52.796;6.942;2023-05-10T06:52:59;15.65;;;10.05;;
52380;SDS011;38310;52.796;6.942;2023-05-10T06:55:26;15.57;;;9.95;;
52380;SDS011;38310;52.796;6.942;2023-05-10T06:57:52;15.40;;;9.40;;
52380;SDS011;38310;52.796;6.942;2023-05-10T07:00:19;14.02;;;8.95;;
52380;SDS011;38310;52.796;6.942;2023-05-10T07:02:45;13.43;;;8.23;;
52380;SDS011;38310;52.796;6.942;2023-05-10T07:05:11;13.40;;;9.40;;
52380;SDS011;38310;52.796;6.942;2023-05-10T07:07:38;14.13;;;9.27;;
52380;SDS011;38310;52.796;6.942;2023-05-10T07:10:03;12.93;;;8.65;;
52380;SDS011;38310;52.796;6.942;2023-05-10T07:12:29;14.30;;;8.40;;
52380;SDS011;38310;52.796;6.942;2023-05-10T07:14:55;11.57;;;7.95;;
52380;SDS011;38310;52.796;6.942;2023-05-10T07:17:21;13.25;;;8.45;;
52380;SDS011;38310;52.796;6.942;2023-05-10T07:19:46;15.48;;;9.70;;
52380;SDS011;38310;52.796;6.942;2023-05-10T07:22:12;15.20;;;9.77;;
52380;SDS011;38310;52.796;6.942;2023-05-10T07:24:38;14.88;;;9.00;;
52380;SDS011;38310;52.796;6.942;2023-05-10T07:27:03;13.48;;;7.85;;
52380;SDS011;38310;52.796;6.942;2023-05-10T07:29:29;12.40;;;7.50;;
52380;SDS011;38310;52.796;6.942;2023-05-10T07:31:55;11.55;;;7.75;;
52380;SDS011;38310;52.796;6.942;2023-05-10T07:34:21;12.27;;;7.82;;
52380;SDS011;38310;52.796;6.942;2023-05-10T07:36:47;16.85;;;9.88;;
52380;SDS011;38310;52.796;6.942;2023-05-10T07:39:13;12.57;;;7.97;;
52380;SDS011;38310;52.796;6.942;2023-05-10T07:41:38;11.85;;;7.90;;
52380;SDS011;38310;52.796;6.942;2023-05-10T07:44:04;12.45;;;7.60;;
52380;SDS011;38310;52.796;6.942;2023-05-10T07:46:31;15.57;;;7.70;;
52380;SDS011;38310;52.796;6.942;2023-05-10T07:48:56;13.18;;;7.85;;
52380;SDS011;38310;52.796;6.942;2023-05-10T07:51:22;12.73;;;7.53;;
52380;SDS011;38310;52.796;6.942;2023-05-10T07:53:48;16.67;;;9.13;;
52380;SDS011;38310;52.796;6.942;2023-05-10T07:56:24;13.40;;;7.22;;
52380;SDS011;38310;52.796;6.942;2023-05-10T07:59:00;12.75;;;8.02;;
52380;SDS011;38310;52.796;6.942;2023-05-10T08:01:30;13.80;;;8.48;;
52380;SDS011;38310;52.796;6.942;2023-05-10T08:04:00;14.13;;;8.68;;
52380;SDS011;38310;52.796;6.942;2023-05-10T08:06:27;11.27;;;7.70;;
52380;SDS011;38310;52.796;6.942;2023-05-10T08:08:54;12.77;;;7.70;;
52380;SDS011;38310;52.796;6.942;2023-05-10T08:11:21;11.95;;;8.02;;
52380;SDS011;38310;52.796;6.942;2023-05-10T08:13:47;11.30;;;7.72;;
52380;SDS011;38310;52.796;6.942;2023-05-10T08:16:14;13.63;;;7.72;;
52380;SDS011;38310;52.796;6.942;2023-05-10T08:18:40;12.32;;;7.07;;
52380;SDS011;38310;52.796;6.942;2023-05-10T08:21:06;12.23;;;7.35;;
52380;SDS011;38310;52.796;6.942;2023-05-10T08:23:32;12.80;;;7.07;;
52380;SDS011;38310;52.796;6.942;2023-05-10T08:25:58;9.95;;;6.85;;
52380;SDS011;38310;52.796;6.942;2023-05-10T08:28:24;12.70;;;7.72;;
52380;SDS011;38310;52.796;6.942;2023-05-10T08:30:50;10.88;;;7.45;;
52380;SDS011;38310;52.796;6.942;2023-05-10T08:33:17;12.13;;;7.47;;
52380;SDS011;38310;52.796;6.942;2023-05-10T08:35:43;12.65;;;7.53;;
52380;SDS011;38310;52.796;6.942;2023-05-10T08:38:09;12.75;;;7.18;;
52380;SDS011;38310;52.796;6.942;2023-05-10T08:40:36;12.48;;;8.40;;
52380;SDS011;38310;52.796;6.942;2023-05-10T08:43:07;10.43;;;6.30;;
52380;SDS011;38310;52.796;6.942;2023-05-10T08:45:39;12.15;;;7.50;;
52380;SDS011;38310;52.796;6.942;2023-05-10T08:48:07;10.65;;;7.03;;
52380;SDS011;38310;52.796;6.942;2023-05-10T08:50:37;12.45;;;7.18;;
52380;SDS011;38310;52.796;6.942;2023-05-10T08:53:10;9.13;;;5.75;;
52380;SDS011;38310;52.796;6.942;2023-05-10T08:55:38;10.65;;;6.38;;
52380;SDS011;38310;52.796;6.942;2023-05-10T08:58:05;10.88;;;6.72;;
52380;SDS011;38310;52.796;6.942;2023-05-10T09:00:32;9.93;;;6.53;;
52380;SDS011;38310;52.796;6.942;2023-05-10T09:02:58;7.95;;;6.05;;
52380;SDS011;38310;52.796;6.942;2023-05-10T09:05:25;9.45;;;6.28;;
52380;SDS011;38310;52.796;6.942;2023-05-10T09:07:51;10.45;;;6.45;;
52380;SDS011;38310;52.796;6.942;2023-05-10T09:10:16;9.70;;;6.22;;
52380;SDS011;38310;52.796;6.942;2023-05-10T09:12:43;15.15;;;7.75;;
52380;SDS011;38310;52.796;6.942;2023-05-10T09:15:10;11.13;;;6.88;;
52380;SDS011;38310;52.796;6.942;2023-05-10T09:17:38;8.63;;;6.03;;
52380;SDS011;38310;52.796;6.942;2023-05-10T09:20:05;9.32;;;5.72;;
52380;SDS011;38310;52.796;6.942;2023-05-10T09:22:32;9.68;;;5.82;;
52380;SDS011;38310;52.796;6.942;2023-05-10T09:27:33;13.55;;;6.07;;
52380;SDS011;38310;52.796;6.942;2023-05-10T09:29:59;10.15;;;6.22;;
52380;SDS011;38310;52.796;6.942;2023-05-10T09:35:10;10.45;;;5.72;;
52380;SDS011;38310;52.796;6.942;2023-05-10T09:37:38;7.63;;;5.38;;
52380;SDS011;38310;52.796;6.942;2023-05-10T09:40:06;7.40;;;5.28;;
52380;SDS011;38310;52.796;6.942;2023-05-10T09:42:34;8.00;;;5.68;;
52380;SDS011;38310;52.796;6.942;2023-05-10T09:45:06;9.32;;;5.32;;
52380;SDS011;38310;52.796;6.942;2023-05-10T09:47:32;11.38;;;5.50;;
52380;SDS011;38310;52.796;6.942;2023-05-10T09:50:04;7.97;;;5.65;;
52380;SDS011;38310;52.796;6.942;2023-05-10T09:52:31;8.25;;;5.22;;
52380;SDS011;38310;52.796;6.942;2023-05-10T09:55:10;8.43;;;5.63;;
52380;SDS011;38310;52.796;6.942;2023-05-10T09:57:36;9.20;;;5.38;;
52380;SDS011;38310;52.796;6.942;2023-05-10T10:00:02;7.07;;;5.13;;
52380;SDS011;38310;52.796;6.942;2023-05-10T10:02:30;7.20;;;4.82;;
52380;SDS011;38310;52.796;6.942;2023-05-10T10:04:56;9.73;;;5.65;;
52380;SDS011;38310;52.796;6.942;2023-05-10T10:07:23;8.05;;;5.28;;
52380;SDS011;38310;52.796;6.942;2023-05-10T10:09:52;8.88;;;5.43;;
52380;SDS011;38310;52.796;6.942;2023-05-10T10:12:19;8.73;;;5.72;;
52380;SDS011;38310;52.796;6.942;2023-05-10T10:14:46;8.95;;;5.55;;
52380;SDS011;38310;52.796;6.942;2023-05-10T10:17:13;7.65;;;5.38;;
52380;SDS011;38310;52.796;6.942;2023-05-10T10:19:39;7.03;;;5.22;;
52380;SDS011;38310;52.796;6.942;2023-05-10T10:22:06;11.88;;;6.22;;
52380;SDS011;38310;52.796;6.942;2023-05-10T10:24:32;11.20;;;5.43;;
52380;SDS011;38310;52.796;6.942;2023-05-10T10:27:45;9.05;;;6.05;;
52380;SDS011;38310;52.796;6.942;2023-05-10T10:33:01;9.32;;;5.80;;
52380;SDS011;38310;52.796;6.942;2023-05-10T10:35:50;10.13;;;6.38;;
52380;SDS011;38310;52.796;6.942;2023-05-10T10:38:18;9.18;;;5.85;;
52380;SDS011;38310;52.796;6.942;2023-05-10T10:40:44;9.40;;;6.35;;
52380;SDS011;38310;52.796;6.942;2023-05-10T10:48:38;11.88;;;6.90;;
52380;SDS011;38310;52.796;6.942;2023-05-10T10:51:04;8.55;;;6.00;;
52380;SDS011;38310;52.796;6.942;2023-05-10T10:53:30;10.23;;;6.97;;
52380;SDS011;38310;52.796;6.942;2023-05-10T10:56:07;8.98;;;6.88;;
52380;SDS011;38310;52.796;6.942;2023-05-10T10:58:35;8.90;;;6.28;;
52380;SDS011;38310;52.796;6.942;2023-05-10T11:01:13;11.23;;;7.25;;
52380;SDS011;38310;52.796;6.942;2023-05-10T11:03:40;9.98;;;6.15;;
52380;SDS011;38310;52.796;6.942;2023-05-10T11:06:28;10.32;;;7.05;;
52380;SDS011;38310;52.796;6.942;2023-05-10T11:08:57;10.95;;;7.53;;
52380;SDS011;38310;52.796;6.942;2023-05-10T11:11:23;11.45;;;7.47;;
52380;SDS011;38310;52.796;6.942;2023-05-10T11:13:49;8.70;;;5.97;;
52380;SDS011;38310;52.796;6.942;2023-05-10T11:16:23;8.15;;;6.28;;
52380;SDS011;38310;52.796;6.942;2023-05-10T11:21:43;12.32;;;7.00;;
52380;SDS011;38310;52.796;6.942;2023-05-10T11:24:14;11.75;;;7.50;;
52380;SDS011;38310;52.796;6.942;2023-05-10T11:26:42;9.00;;;6.85;;
52380;SDS011;38310;52.796;6.942;2023-05-10T11:29:08;11.40;;;7.10;;
52380;SDS011;38310;52.796;6.942;2023-05-10T11:31:34;12.65;;;7.45;;
52380;SDS011;38310;52.796;6.942;2023-05-10T11:34:00;11.00;;;6.82;;
52380;SDS011;38310;52.796;6.942;2023-05-10T11:36:27;8.95;;;6.97;;
52380;SDS011;38310;52.796;6.942;2023-05-10T11:38:56;10.15;;;6.15;;
52380;SDS011;38310;52.796;6.942;2023-05-10T11:41:23;11.75;;;6.57;;
52380;SDS011;38310;52.796;6.942;2023-05-10T11:43:50;9.55;;;6.65;;
52380;SDS011;38310;52.796;6.942;2023-05-10T11:46:17;9.50;;;6.32;;
52380;SDS011;38310;52.796;6.942;2023-05-10T11:48:45;8.80;;;5.35;;
52380;SDS011;38310;52.796;6.942;2023-05-10T11:51:14;8.27;;;5.60;;
52380;SDS011;38310;52.796;6.942;2023-05-10T11:53:40;9.55;;;6.55;;
52380;SDS011;38310;52.796;6.942;2023-05-10T11:56:07;8.18;;;6.03;;
52380;SDS011;38310;52.796;6.942;2023-05-10T11:58:35;11.23;;;6.53;;
52380;SDS011;38310;52.796;6.942;2023-05-10T12:01:03;12.07;;;7.07;;
52380;SDS011;38310;52.796;6.942;2023-05-10T12:03:30;9.45;;;6.60;;
52380;SDS011;38310;52.796;6.942;2023-05-10T12:05:57;10.13;;;5.88;;
52380;SDS011;38310;52.796;6.942;2023-05-10T12:08:24;9.63;;;6.05;;
52380;SDS011;38310;52.796;6.942;2023-05-10T12:10:53;9.50;;;6.15;;
52380;SDS011;38310;52.796;6.942;2023-05-10T12:13:28;8.20;;;4.85;;
52380;SDS011;38310;52.796;6.942;2023-05-10T12:15:57;7.55;;;4.60;;
52380;SDS011;38310;52.796;6.942;2023-05-10T12:18:23;6.90;;;4.85;;
52380;SDS011;38310;52.796;6.942;2023-05-10T12:20:52;7.55;;;4.57;;
52380;SDS011;38310;52.796;6.942;2023-05-10T12:23:19;8.40;;;5.35;;
52380;SDS011;38310;52.796;6.942;2023-05-10T12:25:45;8.93;;;5.35;;
52380;SDS011;38310;52.796;6.942;2023-05-10T12:28:11;8.93;;;5.88;;
52380;SDS011;38310;52.796;6.942;2023-05-10T12:30:38;7.40;;;4.28;;
52380;SDS011;38310;52.796;6.942;2023-05-10T12:33:08;6.80;;;4.38;;
52380;SDS011;38310;52.796;6.942;2023-05-10T12:35:43;7.45;;;4.30;;
52380;SDS011;38310;52.796;6.942;2023-05-10T12:38:29;6.43;;;4.43;;
52380;SDS011;38310;52.796;6.942;2023-05-10T12:40:59;6.28;;;4.53;;
52380;SDS011;38310;52.796;6.942;2023-05-10T12:43:26;10.32;;;4.63;;
52380;SDS011;38310;52.796;6.942;2023-05-10T12:45:52;7.97;;;5.60;;
52380;SDS011;38310;52.796;6.942;2023-05-10T12:48:18;10.40;;;5.43;;
52380;SDS011;38310;52.796;6.942;2023-05-10T12:50:45;7.45;;;5.30;;
52380;SDS011;38310;52.796;6.942;2023-05-10T12:53:10;8.93;;;5.43;;
52380;SDS011;38310;52.796;6.942;2023-05-10T12:55:38;8.75;;;5.93;;
52380;SDS011;38310;52.796;6.942;2023-05-10T12:58:04;7.10;;;5.30;;
52380;SDS011;38310;52.796;6.942;2023-05-10T13:00:30;8.13;;;4.85;;
52380;SDS011;38310;52.796;6.942;2023-05-10T13:02:56;9.00;;;5.65;;
52380;SDS011;38310;52.796;6.942;2023-05-10T13:05:21;10.00;;;5.30;;
52380;SDS011;38310;52.796;6.942;2023-05-10T13:07:47;8.02;;;4.88;;
52380;SDS011;38310;52.796;6.942;2023-05-10T13:10:13;7.75;;;4.95;;
52380;SDS011;38310;52.796;6.942;2023-05-10T13:12:39;7.50;;;5.45;;
52380;SDS011;38310;52.796;6.942;2023-05-10T13:15:05;9.40;;;5.18;;
52380;SDS011;38310;52.796;6.942;2023-05-10T13:17:31;6.60;;;4.53;;
52380;SDS011;38310;52.796;6.942;2023-05-10T13:19:59;7.22;;;4.72;;
52380;SDS011;38310;52.796;6.942;2023-05-10T13:22:24;6.95;;;4.78;;
52380;SDS011;38310;52.796;6.942;2023-05-10T13:24:50;9.32;;;5.53;;
52380;SDS011;38310;52.796;6.942;2023-05-10T13:27:16;7.93;;;5.00;;
52380;SDS011;38310;52.796;6.942;2023-05-10T13:29:41;7.90;;;4.85;;
52380;SDS011;38310;52.796;6.942;2023-05-10T13:32:07;7.18;;;5.40;;
52380;SDS011;38310;52.796;6.942;2023-05-10T13:34:33;12.48;;;5.70;;
52380;SDS011;38310;52.796;6.942;2023-05-10T13:37:00;9.93;;;6.00;;
52380;SDS011;38310;52.796;6.942;2023-05-10T13:39:26;10.05;;;5.35;;
52380;SDS011;38310;52.796;6.942;2023-05-10T13:41:52;10.40;;;6.28;;
52380;SDS011;38310;52.796;6.942;2023-05-10T13:44:19;11.07;;;6.80;;
52380;SDS011;38310;52.796;6.942;2023-05-10T13:46:45;11.65;;;7.20;;
52380;SDS011;38310;52.796;6.942;2023-05-10T13:49:11;10.10;;;7.05;;
52380;SDS011;38310;52.796;6.942;2023-05-10T13:51:37;11.70;;;7.47;;
52380;SDS011;38310;52.796;6.942;2023-05-10T13:54:03;13.50;;;7.00;;
52380;SDS011;38310;52.796;6.942;2023-05-10T13:56:28;11.07;;;6.57;;
52380;SDS011;38310;52.796;6.942;2023-05-10T13:58:55;12.20;;;7.07;;
52380;SDS011;38310;52.796;6.942;2023-05-10T14:01:22;11.23;;;7.75;;
52380;SDS011;38310;52.796;6.942;2023-05-10T14:03:48;11.23;;;7.32;;
52380;SDS011;38310;52.796;6.942;2023-05-10T14:06:16;9.82;;;6.15;;
52380;SDS011;38310;52.796;6.942;2023-05-10T14:08:42;10.95;;;6.68;;
52380;SDS011;38310;52.796;6.942;2023-05-10T14:11:08;7.63;;;5.05;;
52380;SDS011;38310;52.796;6.942;2023-05-10T14:13:34;6.55;;;4.55;;
52380;SDS011;38310;52.796;6.942;2023-05-10T14:15:59;6.40;;;4.18;;
52380;SDS011;38310;52.796;6.942;2023-05-10T14:18:26;9.45;;;5.32;;
52380;SDS011;38310;52.796;6.942;2023-05-10T14:20:53;8.65;;;5.75;;
52380;SDS011;38310;52.796;6.942;2023-05-10T14:23:19;9.02;;;5.13;;
52380;SDS011;38310;52.796;6.942;2023-05-10T14:25:49;9.18;;;5.78;;
52380;SDS011;38310;52.796;6.942;2023-05-10T14:28:15;9.50;;;5.53;;
52380;SDS011;38310;52.796;6.942;2023-05-10T14:30:42;9.40;;;4.90;;
52380;SDS011;38310;52.796;6.942;2023-05-10T14:33:08;8.30;;;4.30;;
52380;SDS011;38310;52.796;6.942;2023-05-10T14:35:35;8.32;;;4.95;;
52380;SDS011;38310;52.796;6.942;2023-05-10T14:38:01;7.70;;;4.60;;
52380;SDS011;38310;52.796;6.942;2023-05-10T14:40:28;6.70;;;4.53;;
52380;SDS011;38310;52.796;6.942;2023-05-10T14:42:54;7.30;;;4.03;;
52380;SDS011;38310;52.796;6.942;2023-05-10T14:45:21;7.70;;;4.53;;
52380;SDS011;38310;52.796;6.942;2023-05-10T14:47:47;11.07;;;5.40;;
52380;SDS011;38310;52.796;6.942;2023-05-10T14:50:15;10.23;;;5.30;;
52380;SDS011;38310;52.796;6.942;2023-05-10T14:52:42;10.40;;;4.82;;
52380;SDS011;38310;52.796;6.942;2023-05-10T14:55:08;7.13;;;4.47;;
52380;SDS011;38310;52.796;6.942;2023-05-10T14:57:35;8.45;;;4.47;;
52380;SDS011;38310;52.796;6.942;2023-05-10T15:00:01;10.63;;;5.28;;
52380;SDS011;38310;52.796;6.942;2023-05-10T15:02:28;8.82;;;4.55;;
52380;SDS011;38310;52.796;6.942;2023-05-10T15:04:56;5.88;;;4.00;;
52380;SDS011;38310;52.796;6.942;2023-05-10T15:07:22;8.40;;;4.47;;